sensor_id;sensor_type;location;lat;lon;timestamp;temperature;humidity
13229;DHT22;6680;53.220;10.402;2023-07-31T00:02:19;14.40;99.90
13229;DHT22;6680;53.220;10.402;2023-07-31T00:04:45;14.40;99.90
13229;DHT22;6680;53.220;10.402;2023-07-31T00:07:12;14.40;99.90
13229;DHT22;6680;53.220;10.402;2023-07-31T00:09:39;14.40;99.90
13229;DHT22;6680;53.220;10.402;2023-07-31T00:12:06;14.50;99.90
13229;DHT22;6680;53.220;10.402;2023-07-31T00:14:33;14.50;99.90
13229;DHT22;6680;53.220;10.402;2023-07-31T00:17:01;14.50;99.90
13229;DHT22;6680;53.220;10.402;2023-07-31T00:19:28;14.50;99.90
13229;DHT22;6680;53.220;10.402;2023-07-31T00:21:54;14.50;99.90
13229;DHT22;6680;53.220;10.402;2023-07-31T00:24:21;14.50;99.90
13229;DHT22;6680;53.220;10.402;2023-07-31T00:26:48;14.50;99.90
13229;DHT22;6680;53.220;10.402;2023-07-31T00:29:14;14.50;99.90
13229;DHT22;6680;53.220;10.402;2023-07-31T00:31:41;14.60;99.90
13229;DHT22;6680;53.220;10.402;2023-07-31T00:34:09;14.60;99.90
13229;DHT22;6680;53.220;10.402;2023-07-31T00:36:36;14.60;99.90
13229;DHT22;6680;53.220;10.402;2023-07-31T00:39:03;14.60;99.90
13229;DHT22;6680;53.220;10.402;2023-07-31T00:41:30;14.60;99.90
13229;DHT22;6680;53.220;10.402;2023-07-31T00:43:56;14.70;99.90
13229;DHT22;6680;53.220;10.402;2023-07-31T00:46:23;14.70;99.90
13229;DHT22;6680;53.220;10.402;2023-07-31T00:48:50;14.80;99.90
13229;DHT22;6680;53.220;10.402;2023-07-31T00:51:18;14.70;99.90
13229;DHT22;6680;53.220;10.402;2023-07-31T00:53:45;14.70;99.90
13229;DHT22;6680;53.220;10.402;2023-07-31T00:56:13;14.70;99.90
13229;DHT22;6680;53.220;10.402;2023-07-31T00:58:40;14.70;99.90
13229;DHT22;6680;53.220;10.402;2023-07-31T01:01:07;14.70;99.90
13229;DHT22;6680;53.220;10.402;2023-07-31T01:03:33;14.60;99.90
13229;DHT22;6680;53.220;10.402;2023-07-31T01:06:12;14.70;99.90
13229;DHT22;6680;53.220;10.402;2023-07-31T01:08:47;14.80;99.90
13229;DHT22;6680;53.220;10.402;2023-07-31T01:11:19;14.80;99.90
13229;DHT22;6680;53.220;10.402;2023-07-31T01:13:46;14.80;99.90
13229;DHT22;6680;53.220;10.402;2023-07-31T01:16:13;14.90;99.90
13229;DHT22;6680;53.220;10.402;2023-07-31T01:18:40;14.90;99.90
13229;DHT22;6680;53.220;10.402;2023-07-31T01:21:23;14.90;99.90
13229;DHT22;6680;53.220;10.402;2023-07-31T01:24:08;14.90;99.90
13229;DHT22;6680;53.220;10.402;2023-07-31T01:26:39;14.90;99.90
13229;DHT22;6680;53.220;10.402;2023-07-31T01:29:10;14.90;99.90
13229;DHT22;6680;53.220;10.402;2023-07-31T01:31:39;14.90;99.90
13229;DHT22;6680;53.220;10.402;2023-07-31T01:34:06;14.90;99.90
13229;DHT22;6680;53.220;10.402;2023-07-31T01:36:35;14.90;99.90
13229;DHT22;6680;53.220;10.402;2023-07-31T01:39:02;14.80;99.90
13229;DHT22;6680;53.220;10.402;2023-07-31T01:43:57;14.80;99.90
13229;DHT22;6680;53.220;10.402;2023-07-31T01:46:24;14.80;99.90
13229;DHT22;6680;53.220;10.402;2023-07-31T01:48:51;14.80;99.90
13229;DHT22;6680;53.220;10.402;2023-07-31T01:51:18;14.80;99.90
13229;DHT22;6680;53.220;10.402;2023-07-31T01:53:44;14.80;99.90
13229;DHT22;6680;53.220;10.402;2023-07-31T01:56:11;14.80;99.90
13229;DHT22;6680;53.220;10.402;2023-07-31T01:58:38;14.80;99.90
13229;DHT22;6680;53.220;10.402;2023-07-31T02:01:06;14.80;99.90
13229;DHT22;6680;53.220;10.402;2023-07-31T02:03:32;14.90;99.90
13229;DHT22;6680;53.220;10.402;2023-07-31T02:05:59;14.80;99.90
13229;DHT22;6680;53.220;10.402;2023-07-31T02:08:26;14.70;99.90
13229;DHT22;6680;53.220;10.402;2023-07-31T02:10:53;14.80;99.90
13229;DHT22;6680;53.220;10.402;2023-07-31T02:13:20;14.70;99.90
13229;DHT22;6680;53.220;10.402;2023-07-31T02:15:47;14.70;99.90
13229;DHT22;6680;53.220;10.402;2023-07-31T02:18:15;14.70;99.90
13229;DHT22;6680;53.220;10.402;2023-07-31T02:20:42;14.70;99.90
13229;DHT22;6680;53.220;10.402;2023-07-31T02:23:11;14.70;99.90
13229;DHT22;6680;53.220;10.402;2023-07-31T02:25:38;14.70;99.90
13229;DHT22;6680;53.220;10.402;2023-07-31T02:28:04;14.70;99.90
13229;DHT22;6680;53.220;10.402;2023-07-31T02:30:31;14.70;99.90
13229;DHT22;6680;53.220;10.402;2023-07-31T02:32:58;14.70;99.90
13229;DHT22;6680;53.220;10.402;2023-07-31T02:35:26;14.70;99.90
13229;DHT22;6680;53.220;10.402;2023-07-31T02:37:53;14.70;99.90
13229;DHT22;6680;53.220;10.402;2023-07-31T02:40:19;14.80;99.90
13229;DHT22;6680;53.220;10.402;2023-07-31T02:42:46;14.70;99.90
13229;DHT22;6680;53.220;10.402;2023-07-31T02:45:13;14.70;99.90
13229;DHT22;6680;53.220;10.402;2023-07-31T02:47:39;14.80;99.90
13229;DHT22;6680;53.220;10.402;2023-07-31T02:50:07;14.80;99.90
13229;DHT22;6680;53.220;10.402;2023-07-31T02:52:35;14.80;99.90
13229;DHT22;6680;53.220;10.402;2023-07-31T02:55:01;14.80;99.90
13229;DHT22;6680;53.220;10.402;2023-07-31T02:57:28;14.80;99.90
13229;DHT22;6680;53.220;10.402;2023-07-31T02:59:55;14.80;99.90
13229;DHT22;6680;53.220;10.402;2023-07-31T03:02:21;14.80;99.90
13229;DHT22;6680;53.220;10.402;2023-07-31T03:04:48;14.80;99.90
13229;DHT22;6680;53.220;10.402;2023-07-31T03:07:15;14.80;99.90
13229;DHT22;6680;53.220;10.402;2023-07-31T03:09:43;14.90;99.90
13229;DHT22;6680;53.220;10.402;2023-07-31T03:12:09;14.90;99.90
13229;DHT22;6680;53.220;10.402;2023-07-31T03:14:36;14.90;99.90
13229;DHT22;6680;53.220;10.402;2023-07-31T03:17:03;14.90;99.90
13229;DHT22;6680;53.220;10.402;2023-07-31T03:19:31;14.90;99.90
13229;DHT22;6680;53.220;10.402;2023-07-31T03:21:58;14.90;99.90
13229;DHT22;6680;53.220;10.402;2023-07-31T03:24:24;15.00;99.90
13229;DHT22;6680;53.220;10.402;2023-07-31T03:26:52;15.00;99.90
13229;DHT22;6680;53.220;10.402;2023-07-31T03:29:19;15.00;99.90
13229;DHT22;6680;53.220;10.402;2023-07-31T03:31:46;15.00;99.90
13229;DHT22;6680;53.220;10.402;2023-07-31T03:34:12;15.00;99.90
13229;DHT22;6680;53.220;10.402;2023-07-31T03:36:39;15.00;99.90
13229;DHT22;6680;53.220;10.402;2023-07-31T03:39:06;15.00;99.90
13229;DHT22;6680;53.220;10.402;2023-07-31T03:41:32;15.00;99.90
13229;DHT22;6680;53.220;10.402;2023-07-31T03:44:00;15.10;99.90
13229;DHT22;6680;53.220;10.402;2023-07-31T03:46:27;15.10;99.90
13229;DHT22;6680;53.220;10.402;2023-07-31T03:48:54;15.10;99.90
13229;DHT22;6680;53.220;10.402;2023-07-31T03:51:20;15.10;99.90
13229;DHT22;6680;53.220;10.402;2023-07-31T03:53:47;15.20;99.90
13229;DHT22;6680;53.220;10.402;2023-07-31T03:56:14;15.20;99.90
13229;DHT22;6680;53.220;10.402;2023-07-31T03:58:41;15.20;99.90
13229;DHT22;6680;53.220;10.402;2023-07-31T04:01:09;15.20;99.90
13229;DHT22;6680;53.220;10.402;2023-07-31T04:03:35;15.00;99.90
13229;DHT22;6680;53.220;10.402;2023-07-31T04:06:02;15.20;99.90
13229;DHT22;6680;53.220;10.402;2023-07-31T04:08:29;15.20;99.90
13229;DHT22;6680;53.220;10.402;2023-07-31T04:10:55;15.20;99.90
13229;DHT22;6680;53.220;10.402;2023-07-31T04:13:22;15.30;99.90
13229;DHT22;6680;53.220;10.402;2023-07-31T04:15:49;15.20;99.90
13229;DHT22;6680;53.220;10.402;2023-07-31T04:18:17;15.30;99.90
13229;DHT22;6680;53.220;10.402;2023-07-31T04:20:44;15.20;99.90
13229;DHT22;6680;53.220;10.402;2023-07-31T04:23:11;15.20;99.90
13229;DHT22;6680;53.220;10.402;2023-07-31T04:25:38;15.30;99.90
13229;DHT22;6680;53.220;10.402;2023-07-31T04:28:04;15.20;99.90
13229;DHT22;6680;53.220;10.402;2023-07-31T04:30:31;15.30;99.90
13229;DHT22;6680;53.220;10.402;2023-07-31T04:32:58;15.30;99.90
13229;DHT22;6680;53.220;10.402;2023-07-31T04:35:26;15.30;99.90
13229;DHT22;6680;53.220;10.402;2023-07-31T04:37:53;15.40;99.90
13229;DHT22;6680;53.220;10.402;2023-07-31T04:40:20;15.40;99.90
13229;DHT22;6680;53.220;10.402;2023-07-31T04:42:47;15.40;99.90
13229;DHT22;6680;53.220;10.402;2023-07-31T04:45:14;15.50;99.90
13229;DHT22;6680;53.220;10.402;2023-07-31T04:47:41;15.50;99.90
13229;DHT22;6680;53.220;10.402;2023-07-31T04:50:08;15.50;99.90
13229;DHT22;6680;53.220;10.402;2023-07-31T04:52:36;15.50;99.90
13229;DHT22;6680;53.220;10.402;2023-07-31T04:55:03;15.50;99.90
13229;DHT22;6680;53.220;10.402;2023-07-31T04:57:30;15.50;99.90
13229;DHT22;6680;53.220;10.402;2023-07-31T04:59:56;15.50;99.90
13229;DHT22;6680;53.220;10.402;2023-07-31T05:02:23;15.60;99.90
13229;DHT22;6680;53.220;10.402;2023-07-31T05:04:50;15.60;99.90
13229;DHT22;6680;53.220;10.402;2023-07-31T05:07:17;15.60;99.90
13229;DHT22;6680;53.220;10.402;2023-07-31T05:09:45;15.60;99.90
13229;DHT22;6680;53.220;10.402;2023-07-31T05:12:12;15.50;99.90
13229;DHT22;6680;53.220;10.402;2023-07-31T05:14:38;15.60;99.90
13229;DHT22;6680;53.220;10.402;2023-07-31T05:17:05;15.60;99.90
13229;DHT22;6680;53.220;10.402;2023-07-31T05:19:32;15.60;99.90
13229;DHT22;6680;53.220;10.402;2023-07-31T05:21:59;15.70;99.90
13229;DHT22;6680;53.220;10.402;2023-07-31T05:24:25;15.70;99.90
13229;DHT22;6680;53.220;10.402;2023-07-31T05:26:53;15.80;99.90
13229;DHT22;6680;53.220;10.402;2023-07-31T05:29:20;15.80;99.90
13229;DHT22;6680;53.220;10.402;2023-07-31T05:31:47;15.80;99.90
13229;DHT22;6680;53.220;10.402;2023-07-31T05:34:13;15.90;99.90
13229;DHT22;6680;53.220;10.402;2023-07-31T05:36:39;16.00;99.90
13229;DHT22;6680;53.220;10.402;2023-07-31T05:39:06;16.20;99.90
13229;DHT22;6680;53.220;10.402;2023-07-31T05:41:34;16.20;99.90
13229;DHT22;6680;53.220;10.402;2023-07-31T05:44:03;16.30;99.90
13229;DHT22;6680;53.220;10.402;2023-07-31T05:46:30;16.30;99.90
13229;DHT22;6680;53.220;10.402;2023-07-31T05:48:57;16.40;99.90
13229;DHT22;6680;53.220;10.402;2023-07-31T05:51:26;16.40;99.90
13229;DHT22;6680;53.220;10.402;2023-07-31T05:53:52;16.50;99.90
13229;DHT22;6680;53.220;10.402;2023-07-31T05:56:19;16.50;99.90
13229;DHT22;6680;53.220;10.402;2023-07-31T05:58:46;16.60;99.90
13229;DHT22;6680;53.220;10.402;2023-07-31T06:01:15;16.60;99.90
13229;DHT22;6680;53.220;10.402;2023-07-31T06:03:42;16.60;99.90
13229;DHT22;6680;53.220;10.402;2023-07-31T06:06:09;16.70;99.90
13229;DHT22;6680;53.220;10.402;2023-07-31T06:08:36;16.80;99.90
13229;DHT22;6680;53.220;10.402;2023-07-31T06:11:03;16.80;99.90
13229;DHT22;6680;53.220;10.402;2023-07-31T06:13:29;17.20;99.90
13229;DHT22;6680;53.220;10.402;2023-07-31T06:15:56;17.00;99.90
13229;DHT22;6680;53.220;10.402;2023-07-31T06:18:26;17.20;99.90
13229;DHT22;6680;53.220;10.402;2023-07-31T06:20:52;17.20;99.90
13229;DHT22;6680;53.220;10.402;2023-07-31T06:23:19;17.30;99.90
13229;DHT22;6680;53.220;10.402;2023-07-31T06:25:46;17.40;99.90
13229;DHT22;6680;53.220;10.402;2023-07-31T06:28:13;17.40;99.90
13229;DHT22;6680;53.220;10.402;2023-07-31T06:30:39;17.40;99.90
13229;DHT22;6680;53.220;10.402;2023-07-31T06:33:06;17.50;99.90
13229;DHT22;6680;53.220;10.402;2023-07-31T06:35:35;17.60;99.90
13229;DHT22;6680;53.220;10.402;2023-07-31T06:38:02;17.60;99.90
13229;DHT22;6680;53.220;10.402;2023-07-31T06:40:29;17.50;99.90
13229;DHT22;6680;53.220;10.402;2023-07-31T06:42:56;17.60;99.90
13229;DHT22;6680;53.220;10.402;2023-07-31T06:45:22;17.60;99.90
13229;DHT22;6680;53.220;10.402;2023-07-31T06:47:49;17.70;99.90
13229;DHT22;6680;53.220;10.402;2023-07-31T06:50:16;17.70;99.90
13229;DHT22;6680;53.220;10.402;2023-07-31T06:52:44;17.80;99.90
13229;DHT22;6680;53.220;10.402;2023-07-31T06:55:18;18.00;99.90
13229;DHT22;6680;53.220;10.402;2023-07-31T06:57:45;18.10;99.90
13229;DHT22;6680;53.220;10.402;2023-07-31T07:00:13;18.20;99.90
13229;DHT22;6680;53.220;10.402;2023-07-31T07:02:39;18.40;99.90
13229;DHT22;6680;53.220;10.402;2023-07-31T07:05:07;18.60;99.90
13229;DHT22;6680;53.220;10.402;2023-07-31T07:07:34;18.60;99.90
13229;DHT22;6680;53.220;10.402;2023-07-31T07:10:02;18.60;99.90
13229;DHT22;6680;53.220;10.402;2023-07-31T07:12:31;18.60;99.90
13229;DHT22;6680;53.220;10.402;2023-07-31T07:14:59;18.70;99.90
13229;DHT22;6680;53.220;10.402;2023-07-31T07:17:27;18.60;99.90
13229;DHT22;6680;53.220;10.402;2023-07-31T07:19:55;18.60;99.90
13229;DHT22;6680;53.220;10.402;2023-07-31T07:22:22;18.70;99.90
13229;DHT22;6680;53.220;10.402;2023-07-31T07:24:48;18.80;99.90
13229;DHT22;6680;53.220;10.402;2023-07-31T07:27:16;18.60;99.90
13229;DHT22;6680;53.220;10.402;2023-07-31T07:29:43;18.70;99.90
13229;DHT22;6680;53.220;10.402;2023-07-31T07:32:10;18.60;99.90
13229;DHT22;6680;53.220;10.402;2023-07-31T07:34:37;18.50;99.90
13229;DHT22;6680;53.220;10.402;2023-07-31T07:37:04;18.40;99.90
13229;DHT22;6680;53.220;10.402;2023-07-31T07:39:31;18.40;99.90
13229;DHT22;6680;53.220;10.402;2023-07-31T07:41:58;18.30;99.90
13229;DHT22;6680;53.220;10.402;2023-07-31T07:44:26;18.20;99.90
13229;DHT22;6680;53.220;10.402;2023-07-31T07:46:53;18.20;99.90
13229;DHT22;6680;53.220;10.402;2023-07-31T07:49:19;18.10;99.90
13229;DHT22;6680;53.220;10.402;2023-07-31T07:51:48;18.10;99.90
13229;DHT22;6680;53.220;10.402;2023-07-31T07:54:15;18.10;99.90
13229;DHT22;6680;53.220;10.402;2023-07-31T07:56:42;18.20;99.90
13229;DHT22;6680;53.220;10.402;2023-07-31T07:59:09;18.20;99.90
13229;DHT22;6680;53.220;10.402;2023-07-31T08:01:37;18.20;99.90
13229;DHT22;6680;53.220;10.402;2023-07-31T08:04:04;18.30;99.90
13229;DHT22;6680;53.220;10.402;2023-07-31T08:06:30;18.40;99.90
13229;DHT22;6680;53.220;10.402;2023-07-31T08:08:57;18.50;99.90
13229;DHT22;6680;53.220;10.402;2023-07-31T08:11:24;18.50;99.90
13229;DHT22;6680;53.220;10.402;2023-07-31T08:13:50;18.50;99.90
13229;DHT22;6680;53.220;10.402;2023-07-31T08:16:17;18.50;99.90
13229;DHT22;6680;53.220;10.402;2023-07-31T08:18:45;18.50;99.90
13229;DHT22;6680;53.220;10.402;2023-07-31T08:21:12;18.50;99.90
13229;DHT22;6680;53.220;10.402;2023-07-31T08:23:39;18.40;99.90
13229;DHT22;6680;53.220;10.402;2023-07-31T08:26:05;18.50;99.90
13229;DHT22;6680;53.220;10.402;2023-07-31T08:28:32;18.50;99.90
13229;DHT22;6680;53.220;10.402;2023-07-31T08:31:00;18.40;99.90
13229;DHT22;6680;53.220;10.402;2023-07-31T08:33:27;18.70;99.90
13229;DHT22;6680;53.220;10.402;2023-07-31T08:35:55;18.50;99.90
13229;DHT22;6680;53.220;10.402;2023-07-31T08:38:21;18.50;99.90
13229;DHT22;6680;53.220;10.402;2023-07-31T08:40:51;18.50;99.90
13229;DHT22;6680;53.220;10.402;2023-07-31T08:43:18;18.50;99.90
13229;DHT22;6680;53.220;10.402;2023-07-31T08:45:45;18.50;99.90
13229;DHT22;6680;53.220;10.402;2023-07-31T08:48:15;18.50;99.90
13229;DHT22;6680;53.220;10.402;2023-07-31T08:50:42;18.30;99.90
13229;DHT22;6680;53.220;10.402;2023-07-31T08:53:10;18.50;99.90
13229;DHT22;6680;53.220;10.402;2023-07-31T08:55:38;18.40;99.90
13229;DHT22;6680;53.220;10.402;2023-07-31T08:58:05;18.50;99.90
13229;DHT22;6680;53.220;10.402;2023-07-31T09:00:32;18.40;99.90
13229;DHT22;6680;53.220;10.402;2023-07-31T09:03:01;18.40;99.90
13229;DHT22;6680;53.220;10.402;2023-07-31T09:05:29;18.40;99.90
13229;DHT22;6680;53.220;10.402;2023-07-31T09:07:57;18.40;99.90
13229;DHT22;6680;53.220;10.402;2023-07-31T09:10:26;18.40;99.90
13229;DHT22;6680;53.220;10.402;2023-07-31T09:12:52;18.40;99.90
13229;DHT22;6680;53.220;10.402;2023-07-31T09:15:19;18.50;99.90
13229;DHT22;6680;53.220;10.402;2023-07-31T09:17:47;18.60;99.90
13229;DHT22;6680;53.220;10.402;2023-07-31T09:20:15;18.70;99.90
13229;DHT22;6680;53.220;10.402;2023-07-31T09:22:43;18.60;99.90
13229;DHT22;6680;53.220;10.402;2023-07-31T09:25:16;18.70;99.90
13229;DHT22;6680;53.220;10.402;2023-07-31T09:27:49;18.70;99.90
13229;DHT22;6680;53.220;10.402;2023-07-31T09:30:16;18.70;99.90
13229;DHT22;6680;53.220;10.402;2023-07-31T09:32:44;18.70;99.90
13229;DHT22;6680;53.220;10.402;2023-07-31T09:35:19;18.80;99.90
13229;DHT22;6680;53.220;10.402;2023-07-31T09:37:49;18.80;99.90
13229;DHT22;6680;53.220;10.402;2023-07-31T09:40:25;18.80;99.90
13229;DHT22;6680;53.220;10.402;2023-07-31T09:42:55;18.90;99.90
13229;DHT22;6680;53.220;10.402;2023-07-31T09:45:23;19.00;99.90
13229;DHT22;6680;53.220;10.402;2023-07-31T09:47:50;19.00;99.90
13229;DHT22;6680;53.220;10.402;2023-07-31T09:50:17;19.10;99.90
13229;DHT22;6680;53.220;10.402;2023-07-31T09:52:43;19.10;99.90
13229;DHT22;6680;53.220;10.402;2023-07-31T09:55:10;19.10;99.90
13229;DHT22;6680;53.220;10.402;2023-07-31T09:57:40;19.10;99.90
13229;DHT22;6680;53.220;10.402;2023-07-31T10:00:09;19.30;99.90
13229;DHT22;6680;53.220;10.402;2023-07-31T10:02:37;19.40;99.90
13229;DHT22;6680;53.220;10.402;2023-07-31T10:05:05;19.40;99.90
13229;DHT22;6680;53.220;10.402;2023-07-31T10:07:36;19.40;99.90
13229;DHT22;6680;53.220;10.402;2023-07-31T10:10:04;19.40;99.90
13229;DHT22;6680;53.220;10.402;2023-07-31T10:12:33;19.30;99.90
13229;DHT22;6680;53.220;10.402;2023-07-31T10:15:01;19.40;99.90
13229;DHT22;6680;53.220;10.402;2023-07-31T10:17:29;19.60;99.90
13229;DHT22;6680;53.220;10.402;2023-07-31T10:19:58;19.70;99.90
13229;DHT22;6680;53.220;10.402;2023-07-31T10:22:25;19.80;99.90
13229;DHT22;6680;53.220;10.402;2023-07-31T10:24:52;19.80;99.90
13229;DHT22;6680;53.220;10.402;2023-07-31T10:27:20;19.80;99.90
13229;DHT22;6680;53.220;10.402;2023-07-31T10:29:48;19.70;99.90
13229;DHT22;6680;53.220;10.402;2023-07-31T10:32:16;19.70;99.90
13229;DHT22;6680;53.220;10.402;2023-07-31T10:34:45;19.90;99.90
13229;DHT22;6680;53.220;10.402;2023-07-31T10:37:25;20.10;99.90
13229;DHT22;6680;53.220;10.402;2023-07-31T10:39:57;20.20;99.90
13229;DHT22;6680;53.220;10.402;2023-07-31T10:42:29;20.20;99.90
13229;DHT22;6680;53.220;10.402;2023-07-31T10:45:01;20.10;99.90
13229;DHT22;6680;53.220;10.402;2023-07-31T10:47:28;20.10;99.90
13229;DHT22;6680;53.220;10.402;2023-07-31T10:50:16;20.00;99.90
13229;DHT22;6680;53.220;10.402;2023-07-31T10:52:46;19.90;99.90
13229;DHT22;6680;53.220;10.402;2023-07-31T10:55:24;19.80;99.90
13229;DHT22;6680;53.220;10.402;2023-07-31T10:57:51;19.70;99.90
13229;DHT22;6680;53.220;10.402;2023-07-31T11:00:20;19.60;99.90
13229;DHT22;6680;53.220;10.402;2023-07-31T11:03:02;19.60;99.90
13229;DHT22;6680;53.220;10.402;2023-07-31T11:05:47;19.70;99.90
13229;DHT22;6680;53.220;10.402;2023-07-31T11:08:16;19.80;99.90
13229;DHT22;6680;53.220;10.402;2023-07-31T11:10:45;20.00;99.90
13229;DHT22;6680;53.220;10.402;2023-07-31T11:13:12;20.10;99.90
13229;DHT22;6680;53.220;10.402;2023-07-31T11:15:39;20.30;99.90
13229;DHT22;6680;53.220;10.402;2023-07-31T11:18:06;20.20;99.90
13229;DHT22;6680;53.220;10.402;2023-07-31T11:20:35;20.10;99.90
13229;DHT22;6680;53.220;10.402;2023-07-31T11:23:05;20.20;99.90
13229;DHT22;6680;53.220;10.402;2023-07-31T11:25:32;20.10;99.90
13229;DHT22;6680;53.220;10.402;2023-07-31T11:28:03;20.20;99.90
13229;DHT22;6680;53.220;10.402;2023-07-31T11:30:29;20.20;99.90
13229;DHT22;6680;53.220;10.402;2023-07-31T11:32:56;20.40;99.90
13229;DHT22;6680;53.220;10.402;2023-07-31T11:35:23;20.40;99.90
13229;DHT22;6680;53.220;10.402;2023-07-31T11:37:50;20.40;99.90
13229;DHT22;6680;53.220;10.402;2023-07-31T11:40:18;20.40;99.90
13229;DHT22;6680;53.220;10.402;2023-07-31T11:42:45;20.30;99.90
13229;DHT22;6680;53.220;10.402;2023-07-31T11:45:12;20.30;99.90
13229;DHT22;6680;53.220;10.402;2023-07-31T11:47:39;20.30;99.90
13229;DHT22;6680;53.220;10.402;2023-07-31T11:50:09;20.40;99.90
13229;DHT22;6680;53.220;10.402;2023-07-31T11:52:39;20.50;99.90
13229;DHT22;6680;53.220;10.402;2023-07-31T11:55:08;20.60;99.90
13229;DHT22;6680;53.220;10.402;2023-07-31T11:57:38;20.50;99.90
13229;DHT22;6680;53.220;10.402;2023-07-31T12:00:07;20.50;99.90
13229;DHT22;6680;53.220;10.402;2023-07-31T12:02:36;20.40;99.90
13229;DHT22;6680;53.220;10.402;2023-07-31T12:05:05;20.40;99.90
13229;DHT22;6680;53.220;10.402;2023-07-31T12:07:46;20.40;99.90
13229;DHT22;6680;53.220;10.402;2023-07-31T12:10:24;20.30;99.90
13229;DHT22;6680;53.220;10.402;2023-07-31T12:12:58;20.30;99.90
13229;DHT22;6680;53.220;10.402;2023-07-31T12:15:30;20.30;99.90
13229;DHT22;6680;53.220;10.402;2023-07-31T12:17:57;20.20;99.90
13229;DHT22;6680;53.220;10.402;2023-07-31T12:20:24;20.20;99.90
13229;DHT22;6680;53.220;10.402;2023-07-31T12:25:18;20.10;99.90
13229;DHT22;6680;53.220;10.402;2023-07-31T12:27:45;20.10;99.90
13229;DHT22;6680;53.220;10.402;2023-07-31T12:33:06;20.20;99.90
13229;DHT22;6680;53.220;10.402;2023-07-31T12:35:43;20.20;99.90
13229;DHT22;6680;53.220;10.402;2023-07-31T12:38:11;20.30;99.90
13229;DHT22;6680;53.220;10.402;2023-07-31T12:40:38;20.40;99.90
13229;DHT22;6680;53.220;10.402;2023-07-31T12:43:05;20.40;99.90
13229;DHT22;6680;53.220;10.402;2023-07-31T12:45:32;20.30;99.90
13229;DHT22;6680;53.220;10.402;2023-07-31T12:47:59;20.20;99.90
13229;DHT22;6680;53.220;10.402;2023-07-31T12:50:28;20.10;99.90
13229;DHT22;6680;53.220;10.402;2023-07-31T12:52:54;20.10;99.90
13229;DHT22;6680;53.220;10.402;2023-07-31T12:55:21;20.10;99.90
13229;DHT22;6680;53.220;10.402;2023-07-31T12:57:48;20.00;99.90
13229;DHT22;6680;53.220;10.402;2023-07-31T13:00:15;19.90;99.90
13229;DHT22;6680;53.220;10.402;2023-07-31T13:02:42;19.90;99.90
13229;DHT22;6680;53.220;10.402;2023-07-31T13:05:08;19.80;99.90
13229;DHT22;6680;53.220;10.402;2023-07-31T13:07:36;19.60;99.90
13229;DHT22;6680;53.220;10.402;2023-07-31T13:10:04;19.60;99.90
13229;DHT22;6680;53.220;10.402;2023-07-31T13:12:31;19.60;99.90
13229;DHT22;6680;53.220;10.402;2023-07-31T13:14:58;19.50;99.90
13229;DHT22;6680;53.220;10.402;2023-07-31T13:17:25;19.40;99.90
13229;DHT22;6680;53.220;10.402;2023-07-31T13:19:52;19.30;99.90
13229;DHT22;6680;53.220;10.402;2023-07-31T13:22:18;19.20;99.90
13229;DHT22;6680;53.220;10.402;2023-07-31T13:24:46;19.30;99.90
13229;DHT22;6680;53.220;10.402;2023-07-31T13:27:13;19.30;99.90
13229;DHT22;6680;53.220;10.402;2023-07-31T13:29:42;19.30;99.90
13229;DHT22;6680;53.220;10.402;2023-07-31T13:32:08;19.30;99.90
13229;DHT22;6680;53.220;10.402;2023-07-31T13:34:35;19.40;99.90
13229;DHT22;6680;53.220;10.402;2023-07-31T13:37:02;19.50;99.90
13229;DHT22;6680;53.220;10.402;2023-07-31T13:42:00;19.50;99.90
13229;DHT22;6680;53.220;10.402;2023-07-31T13:44:26;19.50;99.90
13229;DHT22;6680;53.220;10.402;2023-07-31T13:46:53;19.50;99.90
13229;DHT22;6680;53.220;10.402;2023-07-31T13:49:20;19.50;99.90
13229;DHT22;6680;53.220;10.402;2023-07-31T13:51:46;19.50;99.90
13229;DHT22;6680;53.220;10.402;2023-07-31T13:54:13;19.60;99.90
13229;DHT22;6680;53.220;10.402;2023-07-31T13:56:41;19.40;99.90
13229;DHT22;6680;53.220;10.402;2023-07-31T13:59:09;19.50;99.90
13229;DHT22;6680;53.220;10.402;2023-07-31T14:01:36;19.40;99.90
13229;DHT22;6680;53.220;10.402;2023-07-31T14:04:03;19.40;99.90
13229;DHT22;6680;53.220;10.402;2023-07-31T14:06:30;19.40;99.90
13229;DHT22;6680;53.220;10.402;2023-07-31T14:08:57;19.40;99.90
13229;DHT22;6680;53.220;10.402;2023-07-31T14:11:23;19.30;99.90
13229;DHT22;6680;53.220;10.402;2023-07-31T14:13:50;19.30;99.90
13229;DHT22;6680;53.220;10.402;2023-07-31T14:16:19;19.30;99.90
13229;DHT22;6680;53.220;10.402;2023-07-31T14:18:46;19.40;99.90
13229;DHT22;6680;53.220;10.402;2023-07-31T14:21:12;19.40;99.90
13229;DHT22;6680;53.220;10.402;2023-07-31T14:23:39;19.20;99.90
13229;DHT22;6680;53.220;10.402;2023-07-31T14:26:06;19.20;99.90
13229;DHT22;6680;53.220;10.402;2023-07-31T14:28:32;19.20;99.90
13229;DHT22;6680;53.220;10.402;2023-07-31T14:30:59;19.10;99.90
13229;DHT22;6680;53.220;10.402;2023-07-31T14:33:27;19.40;99.90
13229;DHT22;6680;53.220;10.402;2023-07-31T14:35:54;19.30;99.90
13229;DHT22;6680;53.220;10.402;2023-07-31T14:38:20;19.50;99.90
13229;DHT22;6680;53.220;10.402;2023-07-31T14:40:47;19.70;99.90
13229;DHT22;6680;53.220;10.402;2023-07-31T14:43:15;19.80;99.90
13229;DHT22;6680;53.220;10.402;2023-07-31T14:45:41;19.90;99.90
13229;DHT22;6680;53.220;10.402;2023-07-31T14:48:08;19.80;99.90
13229;DHT22;6680;53.220;10.402;2023-07-31T14:50:36;19.70;99.90
13229;DHT22;6680;53.220;10.402;2023-07-31T14:53:03;19.60;99.90
13229;DHT22;6680;53.220;10.402;2023-07-31T14:55:29;19.40;99.90
13229;DHT22;6680;53.220;10.402;2023-07-31T14:57:56;19.40;99.90
13229;DHT22;6680;53.220;10.402;2023-07-31T15:00:23;19.40;99.90
13229;DHT22;6680;53.220;10.402;2023-07-31T15:02:49;19.30;99.90
13229;DHT22;6680;53.220;10.402;2023-07-31T15:05:16;19.20;99.90
13229;DHT22;6680;53.220;10.402;2023-07-31T15:07:44;19.20;99.90
13229;DHT22;6680;53.220;10.402;2023-07-31T15:10:11;19.20;99.90
13229;DHT22;6680;53.220;10.402;2023-07-31T15:12:39;19.10;99.90
13229;DHT22;6680;53.220;10.402;2023-07-31T15:15:07;19.00;99.90
13229;DHT22;6680;53.220;10.402;2023-07-31T15:17:34;19.10;99.90
13229;DHT22;6680;53.220;10.402;2023-07-31T15:20:00;19.20;99.90
13229;DHT22;6680;53.220;10.402;2023-07-31T15:22:27;19.10;99.90
13229;DHT22;6680;53.220;10.402;2023-07-31T15:24:55;19.10;99.90
13229;DHT22;6680;53.220;10.402;2023-07-31T15:27:22;19.00;99.90
13229;DHT22;6680;53.220;10.402;2023-07-31T15:29:49;19.00;99.90
13229;DHT22;6680;53.220;10.402;2023-07-31T15:32:16;18.90;99.90
13229;DHT22;6680;53.220;10.402;2023-07-31T15:34:44;18.80;99.90
13229;DHT22;6680;53.220;10.402;2023-07-31T15:37:11;18.80;99.90
13229;DHT22;6680;53.220;10.402;2023-07-31T15:39:38;18.80;99.90
13229;DHT22;6680;53.220;10.402;2023-07-31T15:42:06;18.80;99.90
13229;DHT22;6680;53.220;10.402;2023-07-31T15:44:34;18.80;99.90